Pensacola Naval Air Station/Forrest Sherman field
KNPA : now visible

Airfield :











YOU CAN JOIN US ON...

 
LOGIN :

Register | Disclaimer

   EN    FR    IT 

 









Legend :    VFR   Marginal VFR   IFR   Intensive IFR   Very Intensive IFR
Visi :
Ceiling :
>= 8 km
>= 3000ft
5 to 8 km
1000 to 3000 ft
1500m to 5 km
500 to 1000 ft
800 to 1500m
200 to 500 ft
< 800m
< 200 ft
Symbols :   Thunderstorms  Fog  Heavy snow  Heavy precipitations  Wind > 20 kt






- Airport Elevation : 28 ft


KNPA - Pensacola Naval Air Station/Forrest Sherman field

CURRENT METAR :
  • 261721Z 11010KT 10SM SCT020 BKN180 BKN250 29/22 A2990 RMK AO2 TCU DSNT NW-N T2 SET T02890222

EXPIRED METARs :
  • 261656Z 12011KT 10SM BKN018 BKN250 28/22 A2990 RMK AO2 SLP128 BKN018 V SCT T2 SET T02780217
  • 261556Z 10014KT 10SM BKN015 BKN250 28/22 A2991 RMK AO2 SLP128 BKN015 V SCT T2 SET T02780217
  • 261456Z 09012KT 10SM BKN015 BKN040 BKN250 27/22 A2990 RMK AO2 SLP125 T2 SET T02720217 51003

TAF TAF KNPA
Valid from the 26 at 15:00 until the 27 at 15:00 UTC


2615/2715 09013KT 9999 VCSH BKN015 BKN040 BKN250 QNH2985INS
FM261700 11013KT 9999 VCTS SCT020CB BKN040 BKN250 QNH2982INS
TEMPO 2617/2619 BKN020CB
FM270000 09010KT 9999 VCSH BKN020 BKN040 BKN250 QNH2984INS
TEMPO 2700/2702 SCT020 BKN040
FM270500 07010KT 9999 VCSH BKN008 OVC030 QNH2986INS T30/2620Z T24/2712Z FN20033
KZJX FIR / North America



MET'MAP, your aeronautical weather chart ! - Copyright ORBIFLY December 2007 - Disclaimer

ORBIFLY MET'MAP TEAM :

Programming & Development : Alexandra Zaïnal
Concept & original design : Baudouin d'Aumeries
Assistance for programming : Marc-Olivier Méhu
Technical & hardware support : Manuel Goepfert

Contact : metmap@orbifly.com




SOURCES & CREDITS :

   NOAA       Earth
Advisory